Hansen, Nebraska
Current Conditions -  °F | °C
As of 7:53 AM on Monday 20 Oct 2014 (Local Time) from KHSI Reporting Station
Clear Clear  
Wind Chill: 39°   Ceiling: Unl
Heat Index: 42°   Visibility: 10mi
Dew Point: 38°   Wind: 5mph
Humidity: 85%   Direction: 360°N
Pressure: 30.08"   Gusts: NA
Location:  40.5551°N, 98.369°W
Report Text: KHSI 201253Z AUTO 36004KT 10SM CLR 06/03 A3008 RMK AO2 SLP187 T00560033
Loading
Personal Weather Stations






























Interactive Weather Map New forecast layout! Learn more

10-Day Weather Forecast

Advertisements
Track Severe Weather on mobile